Route Details

Aircraft Information
Group: European Fleet
Types: A30F, A31F, B738
Route Data
Distance: 1064nm
Duration: 2h 35m
Origin METAR: LTFM 160020Z 20010KT CAVOK 22/17 Q1010 NOSIG RMK RWY17L 20012KT RWY34L 21011KT RWY16R 21010KT RWY36 21009KT RWY18 21013KT
Dest. METAR: EDDK 160020Z AUTO 14006KT CAVOK 18/14 Q1007 NOSIG
Freight Data
(for Aug 16, 2022)
Load Factor:
74%
Manifested Cargo: 73,194lbs
Financial History
Total Freight: 272,462lbs
Average Load: 0lbs/flt
Fuel Used: 128,891lbs
Avg. Fuel Used: 0lbs/flt
Fuel Expense: $48,070
Avg. Fuel Expense: $0
Avg. Fuel Cost: $0/lbs
Total Gross Income: $693,337
Pilot Pay: $1,036
Total Expenses: $92,656
Total Revenue: $549,369
Average Revenue: $0

Capitol Logistics 591




LTFM
Istanbul Airport
Istanbul, TR
EDDK
Cologne Bonn Airport
Cologne, DE